sensor_id;sensor_type;location;lat;lon;timestamp;pressure;altitude;pressure_sealevel;temperature;humidity
21574;BME280;10948;48.706;9.258;2024-02-23T00:01:05;95839.47;;;7.51;100.00
21574;BME280;10948;48.706;9.258;2024-02-23T00:03:30;95838.25;;;7.55;100.00
21574;BME280;10948;48.706;9.258;2024-02-23T00:05:57;95838.94;;;7.68;100.00
21574;BME280;10948;48.706;9.258;2024-02-23T00:08:22;95842.94;;;7.61;100.00
21574;BME280;10948;48.706;9.258;2024-02-23T00:10:47;95855.78;;;7.63;100.00
21574;BME280;10948;48.706;9.258;2024-02-23T00:13:12;95845.53;;;7.50;100.00
21574;BME280;10948;48.706;9.258;2024-02-23T00:15:38;95847.91;;;7.42;100.00
21574;BME280;10948;48.706;9.258;2024-02-23T00:18:03;95845.06;;;7.56;100.00
21574;BME280;10948;48.706;9.258;2024-02-23T00:20:29;95864.13;;;7.55;100.00
21574;BME280;10948;48.706;9.258;2024-02-23T00:22:54;95877.53;;;7.71;100.00
21574;BME280;10948;48.706;9.258;2024-02-23T00:25:19;95885.53;;;7.68;100.00
21574;BME280;10948;48.706;9.258;2024-02-23T00:27:44;95883.78;;;7.58;100.00
21574;BME280;10948;48.706;9.258;2024-02-23T00:30:11;95881.06;;;7.59;100.00
21574;BME280;10948;48.706;9.258;2024-02-23T00:32:37;95881.31;;;7.56;100.00
21574;BME280;10948;48.706;9.258;2024-02-23T00:35:02;95899.78;;;7.52;100.00
21574;BME280;10948;48.706;9.258;2024-02-23T00:37:27;95916.84;;;7.54;100.00
21574;BME280;10948;48.706;9.258;2024-02-23T00:39:53;95915.66;;;7.47;100.00
21574;BME280;10948;48.706;9.258;2024-02-23T00:42:18;95902.00;;;7.56;100.00
21574;BME280;10948;48.706;9.258;2024-02-23T00:44:43;95907.91;;;7.47;100.00
21574;BME280;10948;48.706;9.258;2024-02-23T00:47:08;95910.94;;;7.63;100.00
21574;BME280;10948;48.706;9.258;2024-02-23T00:49:34;95899.66;;;7.64;100.00
21574;BME280;10948;48.706;9.258;2024-02-23T00:51:59;95896.50;;;7.50;100.00
21574;BME280;10948;48.706;9.258;2024-02-23T00:54:25;95904.59;;;7.56;100.00
21574;BME280;10948;48.706;9.258;2024-02-23T00:56:50;95900.94;;;7.59;100.00
21574;BME280;10948;48.706;9.258;2024-02-23T00:59:15;95920.25;;;7.55;100.00
21574;BME280;10948;48.706;9.258;2024-02-23T01:01:40;95923.91;;;7.52;100.00
21574;BME280;10948;48.706;9.258;2024-02-23T01:04:06;95921.78;;;7.46;100.00
21574;BME280;10948;48.706;9.258;2024-02-23T01:06:31;95931.19;;;7.58;100.00
21574;BME280;10948;48.706;9.258;2024-02-23T01:08:56;95935.22;;;7.51;100.00
21574;BME280;10948;48.706;9.258;2024-02-23T01:11:21;95919.44;;;7.54;100.00
21574;BME280;10948;48.706;9.258;2024-02-23T01:13:46;95947.44;;;7.60;100.00
21574;BME280;10948;48.706;9.258;2024-02-23T01:16:12;95942.03;;;7.52;100.00
21574;BME280;10948;48.706;9.258;2024-02-23T01:18:37;95925.31;;;7.45;100.00
21574;BME280;10948;48.706;9.258;2024-02-23T01:21:02;95922.16;;;7.31;100.00
21574;BME280;10948;48.706;9.258;2024-02-23T01:23:28;95913.31;;;7.22;100.00
21574;BME280;10948;48.706;9.258;2024-02-23T01:25:53;95910.59;;;7.13;100.00
21574;BME280;10948;48.706;9.258;2024-02-23T01:28:18;95917.44;;;7.36;100.00
21574;BME280;10948;48.706;9.258;2024-02-23T01:30:43;95922.47;;;7.37;100.00
21574;BME280;10948;48.706;9.258;2024-02-23T01:33:08;95931.19;;;7.36;100.00
21574;BME280;10948;48.706;9.258;2024-02-23T01:35:34;95927.44;;;7.29;100.00
21574;BME280;10948;48.706;9.258;2024-02-23T01:37:59;95937.53;;;7.21;100.00
21574;BME280;10948;48.706;9.258;2024-02-23T01:40:24;95934.59;;;7.26;100.00
21574;BME280;10948;48.706;9.258;2024-02-23T01:42:59;95924.13;;;7.16;100.00
21574;BME280;10948;48.706;9.258;2024-02-23T01:45:25;95932.84;;;7.15;100.00
21574;BME280;10948;48.706;9.258;2024-02-23T01:47:50;95928.09;;;6.87;100.00
21574;BME280;10948;48.706;9.258;2024-02-23T01:50:15;95929.31;;;7.16;100.00
21574;BME280;10948;48.706;9.258;2024-02-23T01:52:40;95939.34;;;6.75;100.00
21574;BME280;10948;48.706;9.258;2024-02-23T01:55:06;95923.38;;;6.81;100.00
21574;BME280;10948;48.706;9.258;2024-02-23T01:57:31;95933.97;;;6.78;100.00
21574;BME280;10948;48.706;9.258;2024-02-23T01:59:59;95933.72;;;6.81;100.00
21574;BME280;10948;48.706;9.258;2024-02-23T02:02:24;95943.19;;;6.59;100.00
21574;BME280;10948;48.706;9.258;2024-02-23T02:04:49;95950.31;;;6.44;100.00
21574;BME280;10948;48.706;9.258;2024-02-23T02:07:14;95942.50;;;6.33;100.00
21574;BME280;10948;48.706;9.258;2024-02-23T02:09:40;95940.25;;;6.29;100.00
21574;BME280;10948;48.706;9.258;2024-02-23T02:12:05;95949.66;;;6.06;100.00
21574;BME280;10948;48.706;9.258;2024-02-23T02:14:30;95957.66;;;6.14;100.00
21574;BME280;10948;48.706;9.258;2024-02-23T02:16:58;95965.91;;;6.19;100.00
21574;BME280;10948;48.706;9.258;2024-02-23T02:19:23;95965.69;;;6.22;100.00
21574;BME280;10948;48.706;9.258;2024-02-23T02:21:48;95968.53;;;6.30;100.00
21574;BME280;10948;48.706;9.258;2024-02-23T02:24:13;95964.72;;;6.12;100.00
21574;BME280;10948;48.706;9.258;2024-02-23T02:26:39;95963.94;;;5.99;100.00
21574;BME280;10948;48.706;9.258;2024-02-23T02:29:04;95963.06;;;6.11;100.00
21574;BME280;10948;48.706;9.258;2024-02-23T02:31:29;95969.81;;;6.25;100.00
21574;BME280;10948;48.706;9.258;2024-02-23T02:33:54;95967.56;;;6.20;100.00
21574;BME280;10948;48.706;9.258;2024-02-23T02:36:19;95964.91;;;6.09;100.00
21574;BME280;10948;48.706;9.258;2024-02-23T02:38:45;95963.97;;;6.10;100.00
21574;BME280;10948;48.706;9.258;2024-02-23T02:41:10;95956.28;;;5.98;100.00
21574;BME280;10948;48.706;9.258;2024-02-23T02:43:35;95954.75;;;6.19;100.00
21574;BME280;10948;48.706;9.258;2024-02-23T02:46:01;95963.50;;;6.05;100.00
21574;BME280;10948;48.706;9.258;2024-02-23T02:48:27;95958.53;;;6.02;100.00
21574;BME280;10948;48.706;9.258;2024-02-23T02:50:52;95960.25;;;6.14;100.00
21574;BME280;10948;48.706;9.258;2024-02-23T02:53:17;95954.72;;;6.31;100.00
21574;BME280;10948;48.706;9.258;2024-02-23T02:55:43;95957.84;;;6.24;100.00
21574;BME280;10948;48.706;9.258;2024-02-23T02:58:09;95948.44;;;5.99;100.00
21574;BME280;10948;48.706;9.258;2024-02-23T03:00:34;95956.84;;;6.14;100.00
21574;BME280;10948;48.706;9.258;2024-02-23T03:02:59;95957.31;;;6.08;100.00
21574;BME280;10948;48.706;9.258;2024-02-23T03:05:24;95955.31;;;6.11;100.00
21574;BME280;10948;48.706;9.258;2024-02-23T03:07:50;95956.66;;;6.04;100.00
21574;BME280;10948;48.706;9.258;2024-02-23T03:10:15;95946.19;;;5.95;100.00
21574;BME280;10948;48.706;9.258;2024-02-23T03:12:40;95955.19;;;6.13;100.00
21574;BME280;10948;48.706;9.258;2024-02-23T03:15:06;95956.34;;;6.32;100.00
21574;BME280;10948;48.706;9.258;2024-02-23T03:17:32;95946.47;;;6.26;100.00
21574;BME280;10948;48.706;9.258;2024-02-23T03:19:57;95950.16;;;6.11;100.00
21574;BME280;10948;48.706;9.258;2024-02-23T03:22:23;95941.06;;;6.29;100.00
21574;BME280;10948;48.706;9.258;2024-02-23T03:24:48;95950.63;;;6.16;100.00
21574;BME280;10948;48.706;9.258;2024-02-23T03:27:13;95955.31;;;6.11;100.00
21574;BME280;10948;48.706;9.258;2024-02-23T03:29:39;95957.75;;;6.25;100.00
21574;BME280;10948;48.706;9.258;2024-02-23T03:32:04;95954.91;;;6.05;100.00
21574;BME280;10948;48.706;9.258;2024-02-23T03:34:30;95933.44;;;6.04;100.00
21574;BME280;10948;48.706;9.258;2024-02-23T03:36:55;95940.09;;;6.19;100.00
21574;BME280;10948;48.706;9.258;2024-02-23T03:39:20;95953.72;;;6.21;100.00
21574;BME280;10948;48.706;9.258;2024-02-23T03:41:45;95957.50;;;6.28;100.00
21574;BME280;10948;48.706;9.258;2024-02-23T03:44:10;95957.44;;;6.17;100.00
21574;BME280;10948;48.706;9.258;2024-02-23T03:46:36;95974.78;;;6.28;100.00
21574;BME280;10948;48.706;9.258;2024-02-23T03:49:01;95976.34;;;6.18;100.00
21574;BME280;10948;48.706;9.258;2024-02-23T03:51:26;95986.78;;;6.16;100.00
21574;BME280;10948;48.706;9.258;2024-02-23T03:53:51;95991.84;;;6.18;100.00
21574;BME280;10948;48.706;9.258;2024-02-23T03:56:17;95989.38;;;6.16;100.00
21574;BME280;10948;48.706;9.258;2024-02-23T03:58:42;95981.41;;;6.19;100.00
21574;BME280;10948;48.706;9.258;2024-02-23T04:01:07;95972.31;;;6.14;100.00
21574;BME280;10948;48.706;9.258;2024-02-23T04:03:32;95958.34;;;6.05;100.00
21574;BME280;10948;48.706;9.258;2024-02-23T04:05:58;95967.16;;;6.14;100.00
21574;BME280;10948;48.706;9.258;2024-02-23T04:08:23;95981.78;;;6.26;100.00
21574;BME280;10948;48.706;9.258;2024-02-23T04:10:48;95982.06;;;6.10;100.00
21574;BME280;10948;48.706;9.258;2024-02-23T04:13:13;95976.69;;;6.13;100.00
21574;BME280;10948;48.706;9.258;2024-02-23T04:15:39;95980.84;;;6.03;100.00
21574;BME280;10948;48.706;9.258;2024-02-23T04:18:04;95975.66;;;6.03;100.00
21574;BME280;10948;48.706;9.258;2024-02-23T04:20:29;95980.41;;;6.09;100.00
21574;BME280;10948;48.706;9.258;2024-02-23T04:22:55;95986.00;;;6.03;100.00
21574;BME280;10948;48.706;9.258;2024-02-23T04:25:20;95976.59;;;6.02;100.00
21574;BME280;10948;48.706;9.258;2024-02-23T04:27:45;95979.19;;;6.02;100.00
21574;BME280;10948;48.706;9.258;2024-02-23T04:30:10;95980.63;;;6.06;100.00
21574;BME280;10948;48.706;9.258;2024-02-23T04:32:36;95987.88;;;6.01;100.00
21574;BME280;10948;48.706;9.258;2024-02-23T04:35:01;95960.56;;;5.86;100.00
21574;BME280;10948;48.706;9.258;2024-02-23T04:37:26;95970.50;;;5.67;100.00
21574;BME280;10948;48.706;9.258;2024-02-23T04:39:52;95980.72;;;5.81;100.00
21574;BME280;10948;48.706;9.258;2024-02-23T04:42:17;95987.28;;;5.73;100.00
21574;BME280;10948;48.706;9.258;2024-02-23T04:44:42;95969.97;;;5.62;100.00
21574;BME280;10948;48.706;9.258;2024-02-23T04:47:07;95974.72;;;5.68;100.00
21574;BME280;10948;48.706;9.258;2024-02-23T04:49:33;95972.66;;;5.73;100.00
21574;BME280;10948;48.706;9.258;2024-02-23T04:51:59;95965.44;;;5.66;100.00
21574;BME280;10948;48.706;9.258;2024-02-23T04:54:24;95964.19;;;5.71;100.00
21574;BME280;10948;48.706;9.258;2024-02-23T04:56:49;95968.63;;;5.69;100.00
21574;BME280;10948;48.706;9.258;2024-02-23T04:59:15;95969.38;;;5.59;100.00
21574;BME280;10948;48.706;9.258;2024-02-23T05:01:40;95958.41;;;5.80;100.00
21574;BME280;10948;48.706;9.258;2024-02-23T05:04:06;95957.16;;;5.73;100.00
21574;BME280;10948;48.706;9.258;2024-02-23T05:06:31;95950.56;;;5.69;100.00
21574;BME280;10948;48.706;9.258;2024-02-23T05:08:56;95953.03;;;5.71;100.00
21574;BME280;10948;48.706;9.258;2024-02-23T05:11:21;95960.47;;;5.75;100.00
21574;BME280;10948;48.706;9.258;2024-02-23T05:13:47;95962.94;;;5.64;100.00
21574;BME280;10948;48.706;9.258;2024-02-23T05:16:15;95957.63;;;5.55;100.00
21574;BME280;10948;48.706;9.258;2024-02-23T05:18:40;95968.16;;;5.52;100.00
21574;BME280;10948;48.706;9.258;2024-02-23T05:21:06;95975.50;;;5.33;100.00
21574;BME280;10948;48.706;9.258;2024-02-23T05:23:31;95970.72;;;5.52;100.00
21574;BME280;10948;48.706;9.258;2024-02-23T05:25:57;95969.56;;;5.68;100.00
21574;BME280;10948;48.706;9.258;2024-02-23T05:28:22;95977.84;;;5.48;100.00
21574;BME280;10948;48.706;9.258;2024-02-23T05:30:47;95977.34;;;5.56;100.00
21574;BME280;10948;48.706;9.258;2024-02-23T05:33:12;95974.53;;;5.59;100.00
21574;BME280;10948;48.706;9.258;2024-02-23T05:35:38;95977.75;;;5.50;100.00
21574;BME280;10948;48.706;9.258;2024-02-23T05:38:03;95987.66;;;5.56;100.00
21574;BME280;10948;48.706;9.258;2024-02-23T05:40:31;95983.81;;;5.61;100.00
21574;BME280;10948;48.706;9.258;2024-02-23T05:42:57;95985.97;;;5.67;100.00
21574;BME280;10948;48.706;9.258;2024-02-23T05:45:22;95973.91;;;5.80;100.00
21574;BME280;10948;48.706;9.258;2024-02-23T05:47:47;95982.25;;;5.71;100.00
21574;BME280;10948;48.706;9.258;2024-02-23T05:50:12;95992.91;;;5.79;100.00
21574;BME280;10948;48.706;9.258;2024-02-23T05:52:38;96004.88;;;5.80;100.00
21574;BME280;10948;48.706;9.258;2024-02-23T05:55:04;95998.03;;;5.67;100.00
21574;BME280;10948;48.706;9.258;2024-02-23T05:57:30;96000.75;;;5.65;100.00
21574;BME280;10948;48.706;9.258;2024-02-23T05:59:55;96006.53;;;5.56;100.00
21574;BME280;10948;48.706;9.258;2024-02-23T06:02:21;96006.53;;;5.44;100.00
21574;BME280;10948;48.706;9.258;2024-02-23T06:04:46;96010.25;;;5.27;100.00
21574;BME280;10948;48.706;9.258;2024-02-23T06:07:12;96006.56;;;5.31;100.00
21574;BME280;10948;48.706;9.258;2024-02-23T06:09:38;96011.09;;;5.40;100.00
21574;BME280;10948;48.706;9.258;2024-02-23T06:12:03;96021.69;;;5.23;100.00
21574;BME280;10948;48.706;9.258;2024-02-23T06:14:29;96030.47;;;5.33;100.00
21574;BME280;10948;48.706;9.258;2024-02-23T06:16:54;96028.63;;;5.23;100.00
21574;BME280;10948;48.706;9.258;2024-02-23T06:19:19;96031.19;;;5.48;100.00
21574;BME280;10948;48.706;9.258;2024-02-23T06:21:47;96031.50;;;5.43;100.00
21574;BME280;10948;48.706;9.258;2024-02-23T06:24:12;96034.38;;;5.39;100.00
21574;BME280;10948;48.706;9.258;2024-02-23T06:26:38;96028.84;;;5.32;100.00
21574;BME280;10948;48.706;9.258;2024-02-23T06:29:03;96020.75;;;5.49;100.00
21574;BME280;10948;48.706;9.258;2024-02-23T06:31:28;96019.84;;;5.50;100.00
21574;BME280;10948;48.706;9.258;2024-02-23T06:33:54;96025.31;;;5.33;100.00
21574;BME280;10948;48.706;9.258;2024-02-23T06:36:19;96025.50;;;5.30;100.00
21574;BME280;10948;48.706;9.258;2024-02-23T06:38:44;96015.41;;;5.27;100.00
21574;BME280;10948;48.706;9.258;2024-02-23T06:41:10;96009.94;;;5.32;100.00
21574;BME280;10948;48.706;9.258;2024-02-23T06:43:36;96001.28;;;5.20;100.00
21574;BME280;10948;48.706;9.258;2024-02-23T06:46:07;96004.91;;;5.06;100.00
21574;BME280;10948;48.706;9.258;2024-02-23T06:48:33;96009.03;;;5.20;100.00
21574;BME280;10948;48.706;9.258;2024-02-23T06:50:59;96012.00;;;5.14;100.00
21574;BME280;10948;48.706;9.258;2024-02-23T06:53:24;96009.84;;;5.08;100.00
21574;BME280;10948;48.706;9.258;2024-02-23T06:55:49;96002.94;;;5.21;100.00
21574;BME280;10948;48.706;9.258;2024-02-23T06:58:14;96011.28;;;5.13;100.00
21574;BME280;10948;48.706;9.258;2024-02-23T07:00:41;96010.66;;;5.21;100.00
21574;BME280;10948;48.706;9.258;2024-02-23T07:03:06;96011.72;;;5.31;100.00
21574;BME280;10948;48.706;9.258;2024-02-23T07:05:32;96012.94;;;5.26;100.00
21574;BME280;10948;48.706;9.258;2024-02-23T07:07:57;96023.03;;;5.16;100.00
21574;BME280;10948;48.706;9.258;2024-02-23T07:10:22;96025.63;;;5.16;100.00
21574;BME280;10948;48.706;9.258;2024-02-23T07:12:50;96033.38;;;5.29;100.00
21574;BME280;10948;48.706;9.258;2024-02-23T07:15:19;96030.38;;;5.47;100.00
21574;BME280;10948;48.706;9.258;2024-02-23T07:17:45;96037.28;;;5.34;100.00
21574;BME280;10948;48.706;9.258;2024-02-23T07:20:10;96036.63;;;5.68;100.00
21574;BME280;10948;48.706;9.258;2024-02-23T07:22:35;96027.91;;;5.58;100.00
21574;BME280;10948;48.706;9.258;2024-02-23T07:25:01;96031.47;;;5.68;100.00
21574;BME280;10948;48.706;9.258;2024-02-23T07:27:28;96026.75;;;5.75;100.00
21574;BME280;10948;48.706;9.258;2024-02-23T07:29:54;96029.09;;;5.90;100.00
21574;BME280;10948;48.706;9.258;2024-02-23T07:32:19;96036.53;;;5.82;100.00
21574;BME280;10948;48.706;9.258;2024-02-23T07:34:44;96041.19;;;5.90;100.00
21574;BME280;10948;48.706;9.258;2024-02-23T07:37:10;96040.22;;;6.03;100.00
21574;BME280;10948;48.706;9.258;2024-02-23T07:39:35;96042.09;;;6.01;100.00
21574;BME280;10948;48.706;9.258;2024-02-23T07:42:00;96040.53;;;6.11;100.00
21574;BME280;10948;48.706;9.258;2024-02-23T07:44:26;96037.63;;;6.16;100.00
21574;BME280;10948;48.706;9.258;2024-02-23T07:46:52;96041.88;;;6.40;100.00
21574;BME280;10948;48.706;9.258;2024-02-23T07:49:19;96044.00;;;6.10;100.00
21574;BME280;10948;48.706;9.258;2024-02-23T07:51:44;96048.56;;;6.19;100.00
21574;BME280;10948;48.706;9.258;2024-02-23T07:54:09;96048.94;;;6.26;100.00
21574;BME280;10948;48.706;9.258;2024-02-23T07:56:35;96042.53;;;6.31;100.00
21574;BME280;10948;48.706;9.258;2024-02-23T07:59:00;96036.28;;;6.34;100.00
21574;BME280;10948;48.706;9.258;2024-02-23T08:01:29;96032.13;;;6.44;100.00
21574;BME280;10948;48.706;9.258;2024-02-23T08:03:55;96035.09;;;6.50;100.00
21574;BME280;10948;48.706;9.258;2024-02-23T08:06:20;96034.22;;;6.62;100.00
21574;BME280;10948;48.706;9.258;2024-02-23T08:08:46;96032.91;;;6.57;100.00
21574;BME280;10948;48.706;9.258;2024-02-23T08:11:12;96030.69;;;6.63;100.00
21574;BME280;10948;48.706;9.258;2024-02-23T08:13:38;96035.22;;;6.49;100.00
21574;BME280;10948;48.706;9.258;2024-02-23T08:16:03;96026.25;;;6.65;100.00
21574;BME280;10948;48.706;9.258;2024-02-23T08:18:29;96032.19;;;6.78;100.00
21574;BME280;10948;48.706;9.258;2024-02-23T08:20:54;96038.50;;;6.51;100.00
21574;BME280;10948;48.706;9.258;2024-02-23T08:23:19;96045.16;;;6.42;100.00
21574;BME280;10948;48.706;9.258;2024-02-23T08:25:45;96038.13;;;6.91;100.00
21574;BME280;10948;48.706;9.258;2024-02-23T08:28:10;96045.44;;;6.50;100.00
21574;BME280;10948;48.706;9.258;2024-02-23T08:30:35;96042.25;;;6.47;100.00
21574;BME280;10948;48.706;9.258;2024-02-23T08:33:00;96060.63;;;6.55;100.00
21574;BME280;10948;48.706;9.258;2024-02-23T08:35:26;96056.50;;;6.52;100.00
21574;BME280;10948;48.706;9.258;2024-02-23T08:37:51;96056.16;;;6.80;100.00
21574;BME280;10948;48.706;9.258;2024-02-23T08:40:16;96064.88;;;6.90;100.00
21574;BME280;10948;48.706;9.258;2024-02-23T08:42:42;96070.34;;;6.51;100.00
21574;BME280;10948;48.706;9.258;2024-02-23T08:45:08;96064.72;;;6.57;97.45
21574;BME280;10948;48.706;9.258;2024-02-23T08:47:35;96056.66;;;6.38;95.63
21574;BME280;10948;48.706;9.258;2024-02-23T08:50:00;96058.84;;;6.55;95.20
21574;BME280;10948;48.706;9.258;2024-02-23T08:52:25;96058.28;;;6.86;94.82
21574;BME280;10948;48.706;9.258;2024-02-23T08:54:51;96043.94;;;6.82;93.53
21574;BME280;10948;48.706;9.258;2024-02-23T08:57:16;96045.00;;;7.14;94.34
21574;BME280;10948;48.706;9.258;2024-02-23T08:59:44;96037.47;;;7.11;92.60
21574;BME280;10948;48.706;9.258;2024-02-23T09:02:10;96042.69;;;7.33;92.37
21574;BME280;10948;48.706;9.258;2024-02-23T09:04:35;96032.91;;;7.26;91.53
21574;BME280;10948;48.706;9.258;2024-02-23T09:07:01;96035.72;;;7.34;91.11
21574;BME280;10948;48.706;9.258;2024-02-23T09:09:26;96038.91;;;7.26;89.55
21574;BME280;10948;48.706;9.258;2024-02-23T09:11:51;96054.22;;;6.95;90.07
21574;BME280;10948;48.706;9.258;2024-02-23T09:14:17;96051.59;;;7.29;90.61
21574;BME280;10948;48.706;9.258;2024-02-23T09:16:42;96049.06;;;7.06;90.39
21574;BME280;10948;48.706;9.258;2024-02-23T09:19:07;96046.41;;;7.18;89.64
21574;BME280;10948;48.706;9.258;2024-02-23T09:21:32;96054.03;;;7.20;87.60
21574;BME280;10948;48.706;9.258;2024-02-23T09:23:58;96054.19;;;7.18;88.49
21574;BME280;10948;48.706;9.258;2024-02-23T09:26:24;96051.56;;;7.07;90.15
21574;BME280;10948;48.706;9.258;2024-02-23T09:28:49;96054.38;;;7.15;89.20
21574;BME280;10948;48.706;9.258;2024-02-23T09:31:15;96070.53;;;6.95;87.24
21574;BME280;10948;48.706;9.258;2024-02-23T09:33:40;96060.19;;;7.30;87.75
21574;BME280;10948;48.706;9.258;2024-02-23T09:36:05;96057.16;;;7.47;87.11
21574;BME280;10948;48.706;9.258;2024-02-23T09:38:31;96065.50;;;7.39;86.24
21574;BME280;10948;48.706;9.258;2024-02-23T09:40:57;96074.97;;;7.73;86.63
21574;BME280;10948;48.706;9.258;2024-02-23T09:43:23;96068.50;;;7.90;85.58
21574;BME280;10948;48.706;9.258;2024-02-23T09:45:51;96078.84;;;7.79;84.28
21574;BME280;10948;48.706;9.258;2024-02-23T09:48:17;96075.47;;;8.11;82.53
21574;BME280;10948;48.706;9.258;2024-02-23T09:50:43;96076.03;;;8.04;82.24
21574;BME280;10948;48.706;9.258;2024-02-23T09:53:09;96082.28;;;7.79;79.85
21574;BME280;10948;48.706;9.258;2024-02-23T09:55:36;96068.59;;;8.43;79.58
21574;BME280;10948;48.706;9.258;2024-02-23T09:58:01;96073.72;;;8.23;78.40
21574;BME280;10948;48.706;9.258;2024-02-23T10:00:30;96067.31;;;8.91;76.46
21574;BME280;10948;48.706;9.258;2024-02-23T10:02:56;96074.19;;;8.70;74.86
21574;BME280;10948;48.706;9.258;2024-02-23T10:05:23;96077.78;;;8.47;75.75
21574;BME280;10948;48.706;9.258;2024-02-23T10:07:54;96066.38;;;8.92;75.12
21574;BME280;10948;48.706;9.258;2024-02-23T10:10:24;96074.72;;;8.64;75.08
21574;BME280;10948;48.706;9.258;2024-02-23T10:12:51;96080.66;;;8.11;76.05
21574;BME280;10948;48.706;9.258;2024-02-23T10:15:16;96081.09;;;7.94;76.99
21574;BME280;10948;48.706;9.258;2024-02-23T10:17:42;96099.47;;;7.91;77.10
21574;BME280;10948;48.706;9.258;2024-02-23T10:20:07;96102.53;;;8.40;76.34
21574;BME280;10948;48.706;9.258;2024-02-23T10:22:32;96092.19;;;8.40;74.52
21574;BME280;10948;48.706;9.258;2024-02-23T10:24:58;96084.88;;;8.34;72.73
21574;BME280;10948;48.706;9.258;2024-02-23T10:27:24;96085.72;;;8.24;73.62
21574;BME280;10948;48.706;9.258;2024-02-23T10:29:49;96084.19;;;8.32;74.83
21574;BME280;10948;48.706;9.258;2024-02-23T10:32:15;96078.53;;;8.38;73.07
21574;BME280;10948;48.706;9.258;2024-02-23T10:34:42;96088.84;;;8.16;73.05
21574;BME280;10948;48.706;9.258;2024-02-23T10:37:07;96073.59;;;8.24;72.06
21574;BME280;10948;48.706;9.258;2024-02-23T10:39:33;96072.88;;;8.22;71.53
21574;BME280;10948;48.706;9.258;2024-02-23T10:42:02;96075.22;;;8.36;72.11
21574;BME280;10948;48.706;9.258;2024-02-23T10:44:28;96080.41;;;8.14;71.24
21574;BME280;10948;48.706;9.258;2024-02-23T10:46:54;96086.75;;;8.43;71.42
21574;BME280;10948;48.706;9.258;2024-02-23T10:49:20;96071.19;;;8.10;72.04
21574;BME280;10948;48.706;9.258;2024-02-23T10:51:50;96078.75;;;7.91;71.74
21574;BME280;10948;48.706;9.258;2024-02-23T10:54:17;96083.03;;;8.25;72.03
21574;BME280;10948;48.706;9.258;2024-02-23T10:56:46;96078.22;;;8.63;71.77
21574;BME280;10948;48.706;9.258;2024-02-23T10:59:12;96066.41;;;8.70;69.64
21574;BME280;10948;48.706;9.258;2024-02-23T11:01:37;96070.59;;;8.51;70.09
21574;BME280;10948;48.706;9.258;2024-02-23T11:04:04;96062.41;;;8.24;69.55
21574;BME280;10948;48.706;9.258;2024-02-23T11:06:32;96055.41;;;8.57;70.09
21574;BME280;10948;48.706;9.258;2024-02-23T11:09:04;96067.31;;;8.91;71.60
21574;BME280;10948;48.706;9.258;2024-02-23T11:11:31;96058.00;;;8.57;70.75
21574;BME280;10948;48.706;9.258;2024-02-23T11:13:57;96057.56;;;8.73;70.50
21574;BME280;10948;48.706;9.258;2024-02-23T11:16:22;96056.00;;;8.50;69.55
21574;BME280;10948;48.706;9.258;2024-02-23T11:19:03;96048.59;;;8.34;69.49
21574;BME280;10948;48.706;9.258;2024-02-23T11:21:33;96043.84;;;8.50;69.48
21574;BME280;10948;48.706;9.258;2024-02-23T11:24:01;96043.34;;;8.56;70.39
21574;BME280;10948;48.706;9.258;2024-02-23T11:26:27;96044.47;;;8.54;70.52
21574;BME280;10948;48.706;9.258;2024-02-23T11:28:52;96038.91;;;8.58;69.74
21574;BME280;10948;48.706;9.258;2024-02-23T11:31:23;96042.09;;;8.40;69.31
21574;BME280;10948;48.706;9.258;2024-02-23T11:33:53;96047.03;;;8.54;69.58
21574;BME280;10948;48.706;9.258;2024-02-23T11:36:24;96037.41;;;8.76;70.54
21574;BME280;10948;48.706;9.258;2024-02-23T11:38:52;96046.22;;;8.53;69.63
21574;BME280;10948;48.706;9.258;2024-02-23T11:41:20;96047.66;;;8.35;69.35
21574;BME280;10948;48.706;9.258;2024-02-23T11:43:46;96052.34;;;8.41;70.36
21574;BME280;10948;48.706;9.258;2024-02-23T11:46:12;96047.34;;;8.71;69.68
21574;BME280;10948;48.706;9.258;2024-02-23T11:48:37;96042.34;;;8.79;69.03
21574;BME280;10948;48.706;9.258;2024-02-23T11:51:02;96044.09;;;8.47;70.61
21574;BME280;10948;48.706;9.258;2024-02-23T11:53:28;96039.13;;;8.55;70.31
21574;BME280;10948;48.706;9.258;2024-02-23T11:55:53;96052.81;;;8.46;71.00
21574;BME280;10948;48.706;9.258;2024-02-23T11:58:19;96043.50;;;8.55;71.50
21574;BME280;10948;48.706;9.258;2024-02-23T12:00:44;96049.06;;;8.39;70.66
21574;BME280;10948;48.706;9.258;2024-02-23T12:03:10;96042.47;;;8.46;70.77
21574;BME280;10948;48.706;9.258;2024-02-23T12:05:36;96029.28;;;8.81;69.44
21574;BME280;10948;48.706;9.258;2024-02-23T12:08:01;96042.50;;;8.67;70.04
21574;BME280;10948;48.706;9.258;2024-02-23T12:10:28;96032.19;;;8.87;69.98
21574;BME280;10948;48.706;9.258;2024-02-23T12:12:54;96025.09;;;8.89;68.60
21574;BME280;10948;48.706;9.258;2024-02-23T12:15:20;96020.03;;;8.56;68.35
21574;BME280;10948;48.706;9.258;2024-02-23T12:17:46;96021.72;;;8.46;69.61
21574;BME280;10948;48.706;9.258;2024-02-23T12:20:12;96016.25;;;8.60;69.82
21574;BME280;10948;48.706;9.258;2024-02-23T12:22:37;96030.47;;;8.66;69.64
21574;BME280;10948;48.706;9.258;2024-02-23T12:25:02;96019.78;;;8.59;69.15
21574;BME280;10948;48.706;9.258;2024-02-23T12:27:28;96009.09;;;8.53;68.15
21574;BME280;10948;48.706;9.258;2024-02-23T12:29:54;96002.78;;;8.77;69.38
21574;BME280;10948;48.706;9.258;2024-02-23T12:32:20;96009.22;;;8.51;69.56
21574;BME280;10948;48.706;9.258;2024-02-23T12:34:46;96013.88;;;8.68;72.31
21574;BME280;10948;48.706;9.258;2024-02-23T12:37:14;96015.75;;;8.35;71.96
21574;BME280;10948;48.706;9.258;2024-02-23T12:39:39;96020.47;;;8.72;73.20
21574;BME280;10948;48.706;9.258;2024-02-23T12:42:04;96024.78;;;9.03;71.17
21574;BME280;10948;48.706;9.258;2024-02-23T12:44:30;96015.06;;;9.16;70.20
21574;BME280;10948;48.706;9.258;2024-02-23T12:46:55;96018.34;;;8.98;69.92
21574;BME280;10948;48.706;9.258;2024-02-23T12:49:20;96014.94;;;8.97;71.81
21574;BME280;10948;48.706;9.258;2024-02-23T12:51:45;96011.38;;;9.19;72.36
21574;BME280;10948;48.706;9.258;2024-02-23T12:54:10;96010.66;;;8.76;72.07